createdAt,value
2023-02-11T00:05:02.541Z,66.20
2023-02-11T00:07:31.117Z,62.88
2023-02-11T00:10:03.409Z,67.35
2023-02-11T00:12:30.818Z,63.15
2023-02-11T00:14:57.896Z,63.50
2023-02-11T00:17:27.230Z,63.17
2023-02-11T00:19:56.088Z,72.03
2023-02-11T00:22:28.778Z,64.38
2023-02-11T00:24:59.198Z,68.45
2023-02-11T00:27:29.969Z,65.75
2023-02-11T00:30:05.444Z,68.55
2023-02-11T00:32:35.394Z,67.90
2023-02-11T00:35:03.075Z,75.43
2023-02-11T00:37:36.400Z,69.05
2023-02-11T00:40:14.070Z,65.65
2023-02-11T00:42:41.385Z,68.32
2023-02-11T00:45:11.813Z,67.47
2023-02-11T00:47:41.029Z,64.45
2023-02-11T00:50:11.252Z,68.22
2023-02-11T00:52:44.110Z,67.30
2023-02-11T00:55:19.688Z,73.38
2023-02-11T00:57:46.854Z,69.93
2023-02-11T01:00:17.160Z,65.63
2023-02-11T01:02:44.400Z,65.28
2023-02-11T01:05:11.652Z,62.08
2023-02-11T01:07:44.396Z,68.85
2023-02-11T01:10:13.610Z,72.30
2023-02-11T01:12:40.784Z,67.32
2023-02-11T01:15:11.425Z,66.78
2023-02-11T01:17:42.043Z,72.10
2023-02-11T01:20:14.259Z,63.28
2023-02-11T01:22:43.424Z,71.05
2023-02-11T01:25:13.817Z,69.20
2023-02-11T01:27:43.861Z,69.72
2023-02-11T01:30:12.769Z,66.22
2023-02-11T01:36:13.138Z,69.53
2023-02-11T01:38:44.425Z,67.50
2023-02-11T01:41:21.097Z,65.97
2023-02-11T01:43:49.163Z,76.07
2023-02-11T01:46:24.054Z,76.20
2023-02-11T01:48:58.474Z,73.93
2023-02-11T01:51:31.332Z,77.20
2023-02-11T01:54:17.624Z,68.05
2023-02-11T01:57:06.006Z,75.38
2023-02-11T01:59:39.627Z,72.00
2023-02-11T02:02:09.278Z,73.50
2023-02-11T02:04:45.960Z,71.30
2023-02-11T02:07:20.179Z,79.43
2023-02-11T02:09:53.088Z,75.47
2023-02-11T02:12:25.470Z,79.85
2023-02-11T02:14:52.625Z,72.88
2023-02-11T02:17:38.625Z,68.55
2023-02-11T02:20:12.990Z,81.57
2023-02-11T02:22:58.982Z,78.03
2023-02-11T02:25:28.760Z,72.63
2023-02-11T02:28:16.558Z,78.40
2023-02-11T02:30:43.760Z,62.60
2023-02-11T02:33:23.220Z,66.97
2023-02-11T02:36:01.768Z,85.10
2023-02-11T02:38:31.974Z,72.18
2023-02-11T02:41:15.725Z,79.60
2023-02-11T02:43:44.573Z,82.20
2023-02-11T02:46:23.409Z,72.50
2023-02-11T02:48:52.532Z,77.10
2023-02-11T02:51:38.624Z,72.57
2023-02-11T02:54:24.851Z,77.35
2023-02-11T02:57:26.966Z,77.03
2023-02-11T03:00:15.812Z,71.95
2023-02-11T03:02:58.765Z,78.25
2023-02-11T03:05:40.625Z,80.03
2023-02-11T03:08:10.602Z,75.10
2023-02-11T03:10:47.950Z,76.53
2023-02-11T03:13:21.898Z,59.10
2023-02-11T03:15:51.863Z,77.15
2023-02-11T03:18:25.077Z,71.32
2023-02-11T03:20:55.266Z,74.15
2023-02-11T03:23:42.649Z,77.03
2023-02-11T03:26:24.373Z,70.80
2023-02-11T03:29:00.612Z,65.20
2023-02-11T03:31:48.240Z,80.25
2023-02-11T03:34:23.666Z,80.75
2023-02-11T03:36:58.372Z,78.45
2023-02-11T03:39:29.466Z,85.03
2023-02-11T03:44:33.115Z,76.60
2023-02-11T03:47:03.713Z,78.43
2023-02-11T03:49:34.738Z,86.85
2023-02-11T03:52:05.467Z,86.13
2023-02-11T03:57:03.481Z,73.85
2023-02-11T03:59:32.468Z,68.45
2023-02-11T04:02:02.524Z,76.95
2023-02-11T04:04:32.300Z,69.00
2023-02-11T04:06:59.431Z,76.57
2023-02-11T04:09:31.181Z,79.43
2023-02-11T04:12:04.826Z,77.07
2023-02-11T04:14:31.957Z,61.00
2023-02-11T04:16:59.132Z,79.82
2023-02-11T04:19:30.742Z,71.25
2023-02-11T04:21:58.000Z,80.32
2023-02-11T04:24:25.146Z,73.70
2023-02-11T04:26:54.120Z,77.10
2023-02-11T04:29:29.436Z,79.32
2023-02-11T04:32:01.656Z,73.32
2023-02-11T04:34:29.856Z,81.47
2023-02-11T04:36:59.514Z,82.93
2023-02-11T04:39:26.673Z,74.63
2023-02-11T04:41:56.436Z,78.00
2023-02-11T04:44:25.899Z,75.82
2023-02-11T04:46:55.192Z,67.93
2023-02-11T04:49:22.436Z,78.70
2023-02-11T04:51:52.298Z,66.88
2023-02-11T04:54:28.568Z,65.90
2023-02-11T04:56:58.323Z,62.67
2023-02-11T04:59:32.960Z,64.70
2023-02-11T05:02:03.058Z,60.88
2023-02-11T05:04:32.759Z,58.60
2023-02-11T05:07:04.463Z,72.80
2023-02-11T05:09:34.584Z,61.33
2023-02-11T05:15:02.872Z,66.30
2023-02-11T05:20:19.877Z,65.05
2023-02-11T05:22:52.874Z,70.90
2023-02-11T05:25:23.794Z,59.80
2023-02-11T05:27:54.817Z,64.97
2023-02-11T05:30:32.407Z,66.97
2023-02-11T05:33:01.807Z,64.53
2023-02-11T05:35:35.462Z,62.22
2023-02-11T05:38:02.697Z,57.50
2023-02-11T05:40:41.514Z,52.58
2023-02-11T05:43:18.816Z,63.33
2023-02-11T05:45:46.035Z,59.63
2023-02-11T05:48:15.262Z,60.70
2023-02-11T05:50:49.186Z,55.03
2023-02-11T05:53:16.365Z,46.00
2023-02-11T05:55:46.315Z,48.60
2023-02-11T05:58:16.224Z,63.50
2023-02-11T06:00:46.886Z,51.75
2023-02-11T06:05:58.335Z,64.53
2023-02-11T06:08:28.693Z,53.75
2023-02-11T06:11:01.398Z,55.03
2023-02-11T06:13:28.553Z,53.58
2023-02-11T06:16:05.216Z,57.03
2023-02-11T06:18:33.596Z,56.22
2023-02-11T06:21:01.168Z,59.33
2023-02-11T06:23:32.373Z,56.55
2023-02-11T06:26:06.923Z,54.03
2023-02-11T06:28:47.291Z,56.83
2023-02-11T06:31:17.581Z,54.13
2023-02-11T06:33:45.496Z,61.42
2023-02-11T06:36:27.815Z,49.45
2023-02-11T06:38:58.092Z,63.30
2023-02-11T06:41:25.253Z,53.15
2023-02-11T06:43:55.058Z,54.58
2023-02-11T06:46:27.311Z,51.77
2023-02-11T06:48:57.689Z,56.10
2023-02-11T06:51:29.558Z,49.20
2023-02-11T06:53:59.634Z,49.88
2023-02-11T06:56:28.357Z,55.00
2023-02-11T06:58:55.772Z,52.20
2023-02-11T07:01:26.580Z,48.97
2023-02-11T07:06:27.674Z,52.70
2023-02-11T07:08:55.515Z,51.63
2023-02-11T07:11:27.736Z,54.38
2023-02-11T07:14:00.272Z,49.58
2023-02-11T07:16:27.674Z,51.40
2023-02-11T07:18:55.694Z,56.72
2023-02-11T07:21:24.707Z,48.97
2023-02-11T07:23:51.834Z,49.63
2023-02-11T07:26:25.603Z,55.33
2023-02-11T07:28:53.221Z,45.05
2023-02-11T07:31:26.894Z,50.47
2023-02-11T07:33:57.702Z,51.33
2023-02-11T07:38:55.617Z,48.28
2023-02-11T07:41:26.736Z,45.97
2023-02-11T07:43:57.270Z,52.78
2023-02-11T07:49:20.288Z,51.60
2023-02-11T07:52:04.599Z,50.13
2023-02-11T07:54:31.753Z,55.22
2023-02-11T07:57:01.249Z,56.55
2023-02-11T07:59:29.936Z,50.00
2023-02-11T08:02:02.765Z,45.30
2023-02-11T08:04:29.986Z,55.13
2023-02-11T08:07:03.154Z,51.42
2023-02-11T08:09:34.496Z,51.25
2023-02-11T08:12:11.438Z,48.63
2023-02-11T08:14:43.076Z,45.97
2023-02-11T08:17:15.999Z,60.00
2023-02-11T08:19:43.195Z,49.00
2023-02-11T08:22:13.718Z,50.45
2023-02-11T08:24:52.504Z,54.00
2023-02-11T08:27:22.537Z,49.55
2023-02-11T08:29:55.971Z,54.40
2023-02-11T08:32:25.559Z,53.13
2023-02-11T08:34:56.284Z,57.67
2023-02-11T08:37:24.862Z,52.47
2023-02-11T08:40:02.383Z,55.90
2023-02-11T08:42:39.301Z,63.53
2023-02-11T08:45:07.616Z,52.75
2023-02-11T08:47:39.865Z,54.47
2023-02-11T08:50:16.200Z,47.15
2023-02-11T08:52:44.552Z,60.20
2023-02-11T08:55:18.947Z,55.38
2023-02-11T08:57:48.356Z,55.00
2023-02-11T09:00:16.446Z,54.97
2023-02-11T09:02:51.745Z,57.08
2023-02-11T09:05:25.591Z,54.25
2023-02-11T09:07:55.277Z,50.70
2023-02-11T09:10:24.598Z,45.50
2023-02-11T09:12:54.581Z,55.63
2023-02-11T09:15:36.154Z,45.42
2023-02-11T09:18:04.546Z,51.05
2023-02-11T09:20:35.475Z,56.90
2023-02-11T09:23:02.751Z,46.95
2023-02-11T09:25:44.768Z,47.60
2023-02-11T09:28:14.141Z,54.70
2023-02-11T09:30:43.582Z,51.65
2023-02-11T09:33:17.847Z,56.03
2023-02-11T09:35:48.118Z,49.72
2023-02-11T09:38:18.660Z,50.35
2023-02-11T09:40:46.423Z,51.38
2023-02-11T09:43:14.507Z,49.67
2023-02-11T09:45:46.663Z,53.05
2023-02-11T09:48:20.598Z,54.28
2023-02-11T09:50:54.992Z,54.13
2023-02-11T09:53:28.563Z,49.67
2023-02-11T09:56:19.725Z,53.00
2023-02-11T09:58:53.979Z,63.13
2023-02-11T10:01:36.564Z,56.53
2023-02-11T10:04:33.037Z,54.45
2023-02-11T10:07:15.846Z,55.90
2023-02-11T10:09:51.152Z,56.70
2023-02-11T10:12:33.284Z,53.75
2023-02-11T10:15:12.324Z,53.22
2023-02-11T10:17:46.425Z,52.28
2023-02-11T10:20:29.315Z,55.60
2023-02-11T10:23:01.340Z,60.17
2023-02-11T10:25:40.156Z,54.38
2023-02-11T10:28:22.325Z,48.45
2023-02-11T10:30:58.873Z,45.45
2023-02-11T10:33:36.009Z,47.38
2023-02-11T10:36:06.987Z,49.67
2023-02-11T10:38:43.788Z,49.60
2023-02-11T10:41:21.002Z,53.33
2023-02-11T10:43:54.678Z,44.35
2023-02-11T10:46:40.496Z,56.75
2023-02-11T10:49:08.348Z,51.70
2023-02-11T10:51:35.540Z,48.40
2023-02-11T10:54:13.902Z,50.45
2023-02-11T10:56:53.298Z,46.67
2023-02-11T10:59:31.560Z,44.85
2023-02-11T11:02:03.241Z,42.15
2023-02-11T11:04:39.257Z,47.53
2023-02-11T11:07:26.342Z,47.42
2023-02-11T11:09:55.530Z,41.30
2023-02-11T11:12:25.452Z,39.72
2023-02-11T11:15:02.253Z,47.03
2023-02-11T11:17:32.718Z,44.80
2023-02-11T11:20:24.559Z,43.55
2023-02-11T11:22:56.454Z,40.70
2023-02-11T11:25:27.923Z,42.42
2023-02-11T11:28:01.347Z,42.83
2023-02-11T11:30:46.422Z,45.95
2023-02-11T11:33:19.792Z,39.55
2023-02-11T11:35:56.143Z,48.80
2023-02-11T11:38:29.100Z,42.47
2023-02-11T11:41:18.716Z,45.72
2023-02-11T11:46:44.820Z,48.65
2023-02-11T11:49:32.401Z,42.60
2023-02-11T11:52:15.216Z,43.78
2023-02-11T11:54:44.280Z,42.88
2023-02-11T11:57:25.186Z,46.40
2023-02-11T11:59:56.506Z,45.05
2023-02-11T12:02:41.392Z,48.03
2023-02-11T12:05:19.580Z,42.72
2023-02-11T12:08:07.902Z,49.40
2023-02-11T12:10:35.071Z,39.35
2023-02-11T12:13:09.143Z,40.78
2023-02-11T12:16:01.848Z,47.13
2023-02-11T12:18:51.906Z,44.53
2023-02-11T12:21:45.917Z,44.25
2023-02-11T12:24:25.372Z,47.28
2023-02-11T12:27:02.782Z,46.90
2023-02-11T12:29:54.041Z,42.92
2023-02-11T12:32:54.680Z,41.00
2023-02-11T12:35:47.574Z,38.03
2023-02-11T12:38:33.577Z,40.10
2023-02-11T12:41:05.309Z,35.10
2023-02-11T12:43:37.357Z,39.38
2023-02-11T12:46:31.035Z,44.38
2023-02-11T12:49:16.898Z,40.58
2023-02-11T12:52:02.035Z,39.80
2023-02-11T12:54:51.795Z,42.40
2023-02-11T12:57:36.025Z,45.90
2023-02-11T13:00:09.312Z,43.25
2023-02-11T13:02:55.263Z,44.33
2023-02-11T13:05:42.770Z,39.78
2023-02-11T13:08:15.897Z,42.83
2023-02-11T13:10:50.125Z,42.75
2023-02-11T13:13:32.036Z,35.47
2023-02-11T13:16:13.591Z,42.17
2023-02-11T13:19:04.227Z,40.08
2023-02-11T13:21:36.136Z,39.80
2023-02-11T13:24:25.067Z,41.22
2023-02-11T13:27:05.883Z,44.42
2023-02-11T13:29:58.332Z,45.58
2023-02-11T13:32:25.510Z,40.70
2023-02-11T13:34:55.282Z,46.58
2023-02-11T13:37:22.575Z,45.05
2023-02-11T13:40:29.730Z,39.55
2023-02-11T13:43:03.695Z,45.08
2023-02-11T13:45:42.527Z,48.45
2023-02-11T13:48:45.298Z,47.20
2023-02-11T13:51:17.596Z,44.80
2023-02-11T13:53:54.353Z,47.22
2023-02-11T13:56:31.460Z,45.33
2023-02-11T13:59:01.883Z,48.08
2023-02-11T14:02:02.851Z,51.47
2023-02-11T14:04:49.195Z,38.85
2023-02-11T14:07:52.568Z,47.75
2023-02-11T14:10:41.055Z,48.40
2023-02-11T14:13:34.615Z,45.15
2023-02-11T14:16:05.399Z,48.42
2023-02-11T14:18:56.370Z,43.80
2023-02-11T14:21:32.478Z,36.00
2023-02-11T14:24:22.076Z,44.45
2023-02-11T14:27:05.681Z,37.30
2023-02-11T14:29:48.772Z,35.88
2023-02-11T14:32:48.966Z,41.67
2023-02-11T14:35:43.933Z,41.15
2023-02-11T14:38:11.130Z,34.75
2023-02-11T14:41:00.198Z,38.90
2023-02-11T14:43:39.773Z,42.03
2023-02-11T14:46:15.394Z,40.42
2023-02-11T14:48:53.400Z,39.72
2023-02-11T14:51:30.631Z,43.65
2023-02-11T14:54:26.754Z,39.28
2023-02-11T14:57:31.976Z,41.90
2023-02-11T15:00:10.782Z,39.92
2023-02-11T15:02:44.302Z,40.53
2023-02-11T15:05:27.348Z,42.95
2023-02-11T15:08:05.217Z,45.47
2023-02-11T15:10:36.574Z,41.50
2023-02-11T15:13:04.661Z,43.92
2023-02-11T15:15:38.114Z,39.22
2023-02-11T15:18:25.833Z,40.67
2023-02-11T15:20:58.366Z,39.85
2023-02-11T15:23:31.030Z,48.22
2023-02-11T15:26:02.936Z,41.60
2023-02-11T15:28:31.659Z,42.17
2023-02-11T15:31:02.665Z,40.10
2023-02-11T15:33:33.191Z,43.00
2023-02-11T15:36:04.202Z,46.40
2023-02-11T15:38:33.913Z,42.67
2023-02-11T15:43:54.826Z,38.33
2023-02-11T15:46:30.477Z,39.80
2023-02-11T15:49:01.175Z,39.08
2023-02-11T15:51:34.204Z,42.17
2023-02-11T15:54:10.383Z,42.90
2023-02-11T15:56:44.378Z,45.00
2023-02-11T15:59:20.563Z,45.17
2023-02-11T16:01:50.782Z,42.53
2023-02-11T16:04:29.837Z,42.95
2023-02-11T16:07:09.897Z,47.60
2023-02-11T16:09:39.862Z,49.05
2023-02-11T16:12:27.273Z,47.58
2023-02-11T16:15:02.919Z,43.47
2023-02-11T16:17:34.707Z,43.80
2023-02-11T16:20:06.608Z,48.47
2023-02-11T16:22:38.097Z,49.30
2023-02-11T16:25:05.859Z,41.70
2023-02-11T16:27:37.452Z,45.53
2023-02-11T16:30:28.856Z,46.35
2023-02-11T16:32:55.987Z,50.08
2023-02-11T16:35:25.733Z,46.47
2023-02-11T16:37:53.017Z,45.17
2023-02-11T16:40:27.884Z,43.50
2023-02-11T16:42:56.352Z,50.60
2023-02-11T16:45:24.952Z,49.05
2023-02-11T16:48:02.801Z,50.72
2023-02-11T16:50:32.206Z,48.60
2023-02-11T16:53:06.353Z,47.45
2023-02-11T16:55:35.155Z,46.20
2023-02-11T16:58:02.400Z,51.70
2023-02-11T17:00:30.016Z,46.88
2023-02-11T17:02:57.310Z,54.83
2023-02-11T17:05:27.883Z,61.47
2023-02-11T17:10:27.350Z,55.28
2023-02-11T17:12:57.604Z,55.38
2023-02-11T17:15:24.943Z,50.67
2023-02-11T17:18:03.480Z,54.78
2023-02-11T17:20:38.293Z,57.90
2023-02-11T17:23:11.892Z,53.10
2023-02-11T17:25:39.275Z,56.80
2023-02-11T17:28:14.211Z,51.20
2023-02-11T17:30:45.546Z,56.50
2023-02-11T17:33:16.176Z,61.05
2023-02-11T17:38:16.977Z,53.92
2023-02-11T17:40:44.156Z,60.95
2023-02-11T17:43:13.433Z,54.90
2023-02-11T17:45:46.417Z,61.55
2023-02-11T17:48:20.757Z,58.22
2023-02-11T17:50:54.272Z,61.67
2023-02-11T17:53:23.477Z,54.35
2023-02-11T17:55:51.058Z,58.35
2023-02-11T17:58:27.219Z,57.25
2023-02-11T18:01:02.543Z,54.20
2023-02-11T18:03:29.739Z,57.55
2023-02-11T18:06:06.675Z,54.70
2023-02-11T18:08:37.961Z,57.50
2023-02-11T18:11:15.156Z,56.95
2023-02-11T18:13:46.872Z,56.92
2023-02-11T18:16:15.793Z,55.95
2023-02-11T18:18:48.655Z,61.78
2023-02-11T18:21:22.818Z,55.00
2023-02-11T18:23:57.573Z,54.15
2023-02-11T18:26:28.156Z,54.33
2023-02-11T18:31:43.633Z,50.75
2023-02-11T18:34:12.050Z,54.17
2023-02-11T18:36:39.511Z,51.22
2023-02-11T18:39:11.538Z,54.28
2023-02-11T18:41:43.342Z,56.22
2023-02-11T18:44:12.068Z,51.75
2023-02-11T18:46:41.419Z,53.95
2023-02-11T18:49:09.795Z,60.33
2023-02-11T18:51:39.617Z,56.25
2023-02-11T18:54:10.097Z,52.30
2023-02-11T18:56:40.659Z,57.88
2023-02-11T19:01:42.799Z,54.50
2023-02-11T19:04:10.172Z,58.05
2023-02-11T19:06:45.472Z,56.33
2023-02-11T19:09:16.502Z,60.00
2023-02-11T19:11:54.564Z,55.22
2023-02-11T19:14:25.183Z,58.75
2023-02-11T19:16:55.620Z,60.83
2023-02-11T19:19:29.375Z,59.50
2023-02-11T19:22:03.363Z,57.90
2023-02-11T19:24:33.206Z,65.47
2023-02-11T19:27:03.122Z,67.68
2023-02-11T19:29:36.923Z,71.53
2023-02-11T19:32:07.464Z,62.30
2023-02-11T19:34:42.038Z,67.68
2023-02-11T19:37:12.439Z,64.57
2023-02-11T19:39:46.785Z,67.45
2023-02-11T19:42:14.282Z,70.10
2023-02-11T19:44:50.562Z,72.75
2023-02-11T19:47:19.687Z,70.30
2023-02-11T19:49:48.947Z,66.30
2023-02-11T19:52:16.166Z,70.15
2023-02-11T19:54:53.785Z,73.40
2023-02-11T19:57:31.576Z,74.28
2023-02-11T19:59:58.759Z,80.25
2023-02-11T20:02:28.617Z,72.13
2023-02-11T20:04:55.825Z,81.75
2023-02-11T20:07:25.527Z,75.65
2023-02-11T20:09:56.003Z,76.70
2023-02-11T20:12:29.175Z,81.28
2023-02-11T20:15:07.642Z,72.93
2023-02-11T20:17:37.421Z,80.13
2023-02-11T20:20:07.316Z,73.07
2023-02-11T20:22:42.523Z,81.07
2023-02-11T20:25:11.926Z,69.97
2023-02-11T20:27:42.296Z,78.28
2023-02-11T20:30:16.303Z,78.03
2023-02-11T20:32:45.918Z,70.53
2023-02-11T20:35:16.162Z,71.70
2023-02-11T20:37:44.243Z,66.13
2023-02-11T20:40:11.654Z,68.93
2023-02-11T20:42:42.212Z,67.90
2023-02-11T20:45:09.768Z,71.13
2023-02-11T20:47:40.724Z,77.13
2023-02-11T20:50:10.267Z,72.18
2023-02-11T20:52:43.847Z,70.55
2023-02-11T20:55:13.849Z,65.85
2023-02-11T20:57:53.783Z,59.35
2023-02-11T21:00:29.289Z,69.45
2023-02-11T21:03:01.285Z,70.50
2023-02-11T21:05:35.470Z,60.25
2023-02-11T21:08:05.406Z,66.07
2023-02-11T21:10:32.573Z,67.60
2023-02-11T21:13:04.990Z,63.30
2023-02-11T21:18:28.654Z,61.38
2023-02-11T21:20:58.727Z,60.25
2023-02-11T21:23:27.537Z,63.15
2023-02-11T21:26:01.925Z,59.08
2023-02-11T21:28:35.668Z,79.80
2023-02-11T21:31:03.699Z,65.22
2023-02-11T21:33:36.315Z,70.65
2023-02-11T21:39:10.565Z,64.53
2023-02-11T21:41:45.057Z,71.32
2023-02-11T21:44:17.960Z,67.07
2023-02-11T21:46:51.476Z,73.47
2023-02-11T21:49:26.075Z,61.85
2023-02-11T21:51:53.294Z,64.72
2023-02-11T21:54:27.445Z,68.18
2023-02-11T21:57:04.070Z,59.72
2023-02-11T21:59:39.736Z,68.28
2023-02-11T22:02:10.902Z,66.05
2023-02-11T22:04:42.037Z,66.18
2023-02-11T22:07:12.880Z,62.40
2023-02-11T22:09:45.967Z,64.50
2023-02-11T22:12:15.892Z,78.75
2023-02-11T22:14:47.271Z,67.43
2023-02-11T22:17:25.688Z,75.55
2023-02-11T22:19:57.688Z,70.50
2023-02-11T22:22:24.923Z,71.38
2023-02-11T22:24:52.190Z,72.38
2023-02-11T22:27:21.541Z,70.05
2023-02-11T22:29:50.285Z,64.20
2023-02-11T22:32:18.997Z,71.63
2023-02-11T22:34:53.732Z,64.75
2023-02-11T22:37:24.894Z,68.97
2023-02-11T22:39:52.995Z,70.32
2023-02-11T22:42:22.932Z,66.35
2023-02-11T22:44:53.786Z,68.72
2023-02-11T22:47:23.228Z,73.10
2023-02-11T22:49:50.527Z,66.20
2023-02-11T22:52:22.329Z,66.63
2023-02-11T22:54:57.452Z,67.45
2023-02-11T22:57:29.585Z,66.28
2023-02-11T23:05:40.867Z,69.68
2023-02-11T23:08:10.942Z,68.68
2023-02-11T23:13:28.596Z,68.13
2023-02-11T23:19:03.318Z,76.95
2023-02-11T23:21:31.794Z,75.57
2023-02-11T23:24:05.393Z,69.20
2023-02-11T23:26:37.925Z,67.40
2023-02-11T23:29:09.663Z,58.00
2023-02-11T23:31:45.174Z,61.25
2023-02-11T23:34:22.601Z,64.82
2023-02-11T23:36:49.838Z,66.63
2023-02-11T23:39:21.643Z,67.43
2023-02-11T23:41:53.496Z,64.40
2023-02-11T23:44:27.513Z,68.85
2023-02-11T23:46:54.692Z,60.53
2023-02-11T23:49:24.895Z,62.88
2023-02-11T23:51:56.580Z,59.63
2023-02-11T23:54:29.864Z,65.78
2023-02-11T23:56:59.743Z,58.22
2023-02-11T23:59:39.082Z,62.78
